Time;durP1;ratioP1;P1;durP2;ratioP2;P2;SDS_P1;SDS_P2;PMS_P1;PMS_P2;Temp;Humidity;BMP_temperature;BMP_pressure;BME280_temperature;BME280_humidity;BME280_pressure;Samples;Min_cycle;Max_cycle;Signal;HPM_P1;HPM_P2
2023/06/12 00:01:31;;;;;;;19.50;3.45;;;13.60;99.90;;;12.58;88.20;101746.53;4975687;28;19936;-77
2023/06/12 00:03:59;;;;;;;17.40;3.35;;;13.70;99.90;;;12.58;88.46;101744.75;4954447;28;20042;-77
2023/06/12 00:06:28;;;;;;;194.93;141.07;;;13.70;99.90;;;12.57;88.57;101742.16;4972405;28;20070;-76
2023/06/12 00:08:56;;;;;;;53.25;48.03;;;13.70;99.90;;;12.61;88.31;101744.63;4966568;28;20035;-78
2023/06/12 00:11:22;;;;;;;16.15;3.55;;;13.70;99.90;;;12.59;87.88;101749.13;4975521;28;20121;-78
2023/06/12 00:13:48;;;;;;;89.43;58.00;;;13.70;99.90;;;12.58;87.56;101743.88;4941272;28;20039;-78
2023/06/12 00:16:15;;;;;;;13.07;4.88;;;13.60;99.90;;;12.52;88.37;101747.63;4956178;28;20038;-78
2023/06/12 00:18:43;;;;;;;10.43;3.67;;;13.60;99.90;;;12.56;87.80;101743.94;4948166;28;20034;-78
2023/06/12 00:21:12;;;;;;;12.93;5.68;;;13.60;99.90;;;12.52;87.58;101748.47;4986203;28;20114;-78
2023/06/12 00:23:39;;;;;;;15.75;4.22;;;13.60;99.90;;;12.50;87.69;101750.34;4936406;28;20046;-78
2023/06/12 00:26:13;;;;;;;15.52;5.22;;;13.60;99.90;;;12.49;87.47;101748.59;4936779;28;20572;-77
2023/06/12 00:28:40;;;;;;;9.90;4.50;;;13.50;99.90;;;12.50;87.49;101747.69;4946339;28;20035;-78
2023/06/12 00:31:06;;;;;;;14.50;5.13;;;13.50;99.90;;;12.45;88.14;101744.34;4937684;28;20065;-78
2023/06/12 00:33:32;;;;;;;19.30;6.47;;;13.60;99.90;;;12.45;88.87;101748.78;4909604;28;20507;-78
2023/06/12 00:36:06;;;;;;;;;;;13.50;99.90;;;12.44;89.03;101745.28;4941154;28;20035;-78
2023/06/12 00:38:34;;;;;;;14.73;6.50;;;13.60;99.90;;;12.55;89.61;101747.50;4970568;28;19921;-78
2023/06/12 00:41:00;;;;;;;8.38;4.00;;;13.60;99.90;;;12.62;88.95;101746.34;4971877;28;20030;-78
2023/06/12 00:43:26;;;;;;;40.90;9.43;;;13.70;99.90;;;12.63;88.57;101749.84;4924577;28;20302;-77
2023/06/12 00:45:55;;;;;;;10.95;4.78;;;13.70;99.90;;;12.68;87.71;101751.41;4934744;28;20022;-77
2023/06/12 00:48:20;;;;;;;12.35;4.93;;;13.70;99.90;;;12.71;87.32;101755.69;4950773;28;20034;-78
2023/06/12 00:50:47;;;;;;;9.82;5.03;;;13.80;99.90;;;12.75;86.93;101752.00;4917274;28;20097;-78
2023/06/12 00:53:13;;;;;;;13.40;5.00;;;13.80;99.90;;;12.77;86.23;101751.97;4964647;28;20069;-78
2023/06/12 00:55:39;;;;;;;26.55;8.80;;;13.80;99.90;;;12.76;85.94;101745.78;4952571;28;20035;-78
2023/06/12 00:58:05;;;;;;;12.90;4.30;;;13.80;99.90;;;12.76;85.47;101750.22;4943407;28;20033;-78
2023/06/12 01:00:38;;;;;;;19.50;6.72;;;13.80;99.90;;;12.77;84.64;101749.31;4941383;28;20025;-79
2023/06/12 01:03:07;;;;;;;21.80;10.18;;;13.80;99.90;;;12.77;83.82;101746.69;4944245;28;20042;-78
2023/06/12 01:05:37;;;;;;;11.93;5.25;;;14.10;99.90;;;12.81;83.02;101749.13;4938470;28;20027;-77
2023/06/12 01:08:35;;;;;;;11.93;6.47;;;13.80;99.90;;;12.81;81.64;101757.06;4949497;28;20176;-78
2023/06/12 01:11:12;;;;;;;;;;;13.80;99.90;;;12.80;81.49;101749.19;4940851;28;20035;-78
2023/06/12 01:13:40;;;;;;;19.60;5.47;;;13.80;99.90;;;12.79;80.96;101750.13;4912846;28;19913;-78
2023/06/12 01:16:06;;;;;;;13.80;4.75;;;13.90;99.90;;;12.79;80.41;101748.34;4950663;28;20039;-77
2023/06/12 01:18:33;;;;;;;6.30;3.97;;;13.90;99.90;;;12.79;80.15;101750.97;4939047;28;20436;-78
2023/06/12 01:21:01;;;;;;;12.93;4.60;;;13.90;99.90;;;12.79;79.40;101750.97;4933319;28;20051;-78
2023/06/12 01:23:39;;;;;;;11.65;5.45;;;13.90;99.90;;;12.80;79.45;101755.31;4978256;28;20115;-77
2023/06/12 01:26:10;;;;;;;9.73;4.75;;;13.80;99.90;;;12.75;79.58;101752.00;4924676;28;20045;-77
2023/06/12 01:29:00;;;;;;;11.50;5.63;;;13.80;99.90;;;12.68;78.94;101753.19;4962303;28;20095;-77
2023/06/12 01:31:59;;;;;;;16.67;5.20;;;13.80;99.90;;;12.71;78.97;101750.41;4969373;28;20039;-77
2023/06/12 01:34:50;;;;;;;10.88;6.28;;;13.70;99.90;;;12.68;77.71;101753.19;4929945;28;20105;-77
2023/06/12 01:37:36;;;;;;;14.15;5.93;;;13.70;99.90;;;12.69;77.22;101757.53;4931989;28;20537;-77
2023/06/12 01:40:07;;;;;;;14.63;5.43;;;13.70;99.90;;;12.67;77.38;101762.03;4972074;28;20035;-78
2023/06/12 01:42:33;;;;;;;16.58;5.82;;;13.70;99.90;;;12.64;76.75;101767.44;4981879;28;20280;-77
2023/06/12 01:44:59;;;;;;;16.00;5.68;;;13.70;99.90;;;12.64;76.15;101762.16;4956235;28;20046;-77
2023/06/12 01:47:32;;;;;;;9.23;4.75;;;13.70;99.90;;;12.62;75.90;101764.84;4954391;28;20038;-77
2023/06/12 01:49:59;;;;;;;9.15;5.57;;;13.70;99.90;;;12.64;75.21;101770.94;4946854;28;20156;-78
2023/06/12 01:52:26;;;;;;;12.48;5.30;;;13.70;99.90;;;12.67;74.39;101770.78;4928718;28;20034;-78
2023/06/12 01:54:52;;;;;;;14.80;8.57;;;13.70;99.90;;;12.71;73.26;101776.84;4951034;28;20038;-77
2023/06/12 01:57:24;;;;;;;10.45;6.15;;;13.80;99.90;;;12.80;72.53;101762.41;4955191;28;20402;-77
2023/06/12 01:59:51;;;;;;;10.48;4.75;;;13.90;99.90;;;12.82;72.07;101771.97;4921616;28;20069;-78
2023/06/12 02:02:17;;;;;;;11.35;4.55;;;13.90;99.90;;;12.82;72.38;101764.06;4959163;28;20039;-77
2023/06/12 02:04:43;;;;;;;8.15;3.88;;;13.90;99.90;;;12.84;71.82;101775.44;4962334;28;20037;-77
2023/06/12 02:07:12;;;;;;;13.18;6.80;;;13.80;99.90;;;12.83;71.65;101767.56;4973755;28;20121;-77
2023/06/12 02:09:40;;;;;;;7.80;4.18;;;13.90;99.90;;;12.85;70.44;101761.31;4958548;28;20135;-78
2023/06/12 02:12:07;;;;;;;14.52;4.20;;;13.90;99.90;;;12.91;70.19;101761.06;4957253;28;20515;-77
2023/06/12 02:14:33;;;;;;;6.00;4.38;;;14.00;99.90;;;12.96;69.65;101766.16;4966073;28;20169;-78
2023/06/12 02:17:02;;;;;;;13.52;5.03;;;14.00;99.90;;;13.02;69.16;101759.75;4979043;28;20474;-77
2023/06/12 02:19:36;;;;;;;19.67;4.78;;;14.10;99.90;;;13.03;69.73;101761.50;4958603;28;20093;-77
2023/06/12 02:22:02;;;;;;;7.25;4.50;;;14.00;99.90;;;13.01;68.64;101758.06;4950052;28;20049;-78
2023/06/12 02:24:32;;;;;;;12.10;5.80;;;14.00;99.90;;;13.02;68.24;101759.75;4951431;28;20024;-77
2023/06/12 02:26:57;;;;;;;11.75;4.15;;;14.10;99.90;;;13.05;67.99;101762.28;4988817;28;20039;-79
2023/06/12 02:29:23;;;;;;;13.07;5.10;;;14.10;99.90;;;13.02;68.24;101762.41;4950492;28;20570;-77
2023/06/12 02:31:49;;;;;;;8.05;4.72;;;14.10;99.90;;;13.05;67.57;101763.16;4968798;28;20118;-77
2023/06/12 02:34:15;;;;;;;9.52;4.65;;;14.10;99.90;;;13.07;67.12;101760.44;4965068;28;20085;-77
2023/06/12 02:36:42;;;;;;;;;;;14.10;99.90;;;13.03;66.75;101758.84;4924150;28;20057;-78
2023/06/12 02:39:14;;;;;;;7.85;6.68;;;14.10;99.90;;;13.08;66.87;101760.38;4962899;28;19921;-78
2023/06/12 02:41:42;;;;;;;8.82;7.65;;;14.10;99.90;;;13.12;66.93;101761.97;4965835;28;20637;-77
2023/06/12 02:44:07;;;;;;;13.93;6.22;;;14.20;99.90;;;13.19;66.09;101767.00;4966186;28;20069;-76
2023/06/12 02:46:49;;;;;;;7.95;4.50;;;14.30;99.90;;;13.24;66.04;101768.56;4936281;28;20035;-78
2023/06/12 02:49:15;;;;;;;10.85;5.70;;;14.30;99.90;;;13.19;66.29;101767.84;4973642;28;20399;-77
2023/06/12 02:51:40;;;;;;;6.00;5.35;;;14.30;99.90;;;13.20;66.53;101776.69;4961581;28;20050;-78
2023/06/12 02:54:11;;;;;;;9.70;4.20;;;14.20;99.90;;;13.17;66.41;101776.78;4941482;28;20110;-77
2023/06/12 02:56:37;;;;;;;11.82;4.45;;;14.30;99.90;;;13.21;65.48;101773.94;4955530;28;20050;-77
2023/06/12 02:59:03;;;;;;;11.18;10.18;;;14.30;99.90;;;13.19;65.77;101775.78;4960001;28;20039;-77
2023/06/12 03:01:30;;;;;;;8.77;6.22;;;14.30;99.90;;;13.20;65.65;101774.03;4952654;28;20035;-77
2023/06/12 03:03:56;;;;;;;11.48;6.10;;;14.30;99.90;;;13.22;65.83;101773.03;4944998;28;20038;-77
2023/06/12 03:06:26;;;;;;;8.10;6.78;;;14.30;99.90;;;13.24;65.57;101779.13;4956082;28;20060;-77
2023/06/12 03:08:53;;;;;;;18.60;7.85;;;14.30;99.90;;;13.25;65.60;101780.84;4959891;28;20702;-77
2023/06/12 03:11:19;;;;;;;21.75;19.77;;;14.30;99.90;;;13.23;65.41;101782.69;4970884;28;20118;-77
2023/06/12 03:13:45;;;;;;;11.63;8.23;;;14.30;99.90;;;13.25;65.39;101782.63;4954322;28;20039;-77
2023/06/12 03:16:11;;;;;;;11.07;10.13;;;14.30;99.90;;;13.24;65.68;101787.06;4969893;28;20021;-77
2023/06/12 03:18:36;;;;;;;;;;;14.30;99.90;;;13.18;65.46;101791.75;4958410;28;20038;-77
2023/06/12 03:21:10;;;;;;;9.30;8.30;;;14.30;99.90;;;13.25;65.40;101788.78;4910540;28;19972;-77
2023/06/12 03:23:35;;;;;;;10.25;9.30;;;14.30;99.90;;;13.30;65.29;101794.78;4954084;28;20113;-77
2023/06/12 03:26:01;;;;;;;8.48;6.03;;;14.30;99.90;;;13.41;64.57;101791.69;4968303;28;21560;-77
2023/06/12 03:28:27;;;;;;;11.55;4.80;;;14.40;99.90;;;13.48;64.79;101795.81;4922324;28;20054;-77
2023/06/12 03:30:53;;;;;;;8.40;7.47;;;14.50;99.90;;;13.58;64.16;101798.06;4954114;28;20113;-77
2023/06/12 03:33:26;;;;;;;;;;;14.50;99.90;;;13.60;63.39;101806.78;4982860;28;20051;-77
2023/06/12 03:35:52;;;;;;;9.75;4.57;;;14.70;99.90;;;13.81;63.76;101810.31;4930453;28;19914;-77
2023/06/12 03:38:18;;;;;;;8.35;6.32;;;14.70;99.90;;;13.95;63.41;101806.16;4945760;28;20081;-77
2023/06/12 03:40:43;;;;;;;;;;;14.90;99.90;;;15.01;62.02;101832.31;4944528;28;20500;-77
2023/06/12 03:43:09;;;;;;;7.45;4.43;;;17.30;99.90;;;16.53;58.57;101847.66;4972999;28;19917;-77
2023/06/12 03:45:35;;;;;;;;;;;17.40;99.90;;;17.81;54.94;101863.50;4961723;28;20063;-77
2023/06/12 03:48:01;;;;;;;6.82;5.25;;;19.70;97.20;;;19.01;52.69;101877.56;4943053;28;19921;-77
2023/06/12 03:50:27;;;;;;;14.30;6.70;;;20.70;95.00;;;19.82;50.42;101890.09;4917809;28;20064;-77
2023/06/12 03:52:53;;;;;;;;;;;21.20;94.10;;;20.65;48.48;101886.25;4951467;28;20092;-76
2023/06/12 03:55:21;;;;;;;7.07;6.40;;;22.30;92.80;;;21.79;46.77;101905.59;4946095;28;19949;-77
2023/06/12 03:57:47;;;;;;;36.30;32.80;;;22.90;90.50;;;21.99;45.33;101906.75;4920738;28;20034;-77
2023/06/12 04:00:13;;;;;;;14.00;12.45;;;23.50;90.20;;;22.68;44.45;101924.72;4931226;28;20656;-78
2023/06/12 04:02:44;;;;;;;15.50;12.80;;;23.80;87.70;;;22.86;43.41;101923.25;4949754;28;20026;-77
2023/06/12 04:05:10;;;;;;;12.27;8.35;;;24.10;85.00;;;22.94;42.78;101925.34;4946907;28;20396;-77
2023/06/12 04:07:39;;;;;;;10.70;9.18;;;24.60;85.20;;;23.87;42.00;101940.19;4931044;28;20126;-77
2023/06/12 04:10:14;;;;;;;72.00;65.60;;;25.10;83.30;;;24.20;40.46;101947.25;4943206;28;20042;-77
2023/06/12 04:12:40;;;;;;;11.50;10.00;;;25.40;81.10;;;24.64;40.09;101963.25;4922794;28;20595;-78
2023/06/12 04:15:07;;;;;;;16.77;14.80;;;25.90;81.20;;;25.49;39.01;101962.91;4948890;28;20045;-77
2023/06/12 04:17:33;;;;;;;20.40;18.55;;;26.30;82.10;;;26.22;38.21;101981.44;4976157;28;20041;-78
2023/06/12 04:20:02;;;;;;;26.17;24.20;;;26.70;79.10;;;26.28;38.03;101978.13;4956311;28;20027;-78
2023/06/12 04:22:29;;;;;;;13.88;12.15;;;27.00;77.30;;;26.66;36.88;101989.91;4961194;28;20059;-77
2023/06/12 04:24:59;;;;;;;13.35;11.65;;;27.40;77.20;;;27.22;36.33;101995.41;4934630;28;20527;-77
2023/06/12 04:27:25;;;;;;;14.75;7.88;;;27.50;76.10;;;27.06;36.58;101986.03;4954800;28;20070;-77
2023/06/12 04:29:57;;;;;;;16.92;14.27;;;27.90;76.30;;;28.01;35.27;102002.88;4954187;28;20125;-77
2023/06/12 04:32:23;;;;;;;15.95;14.65;;;28.30;75.50;;;28.48;34.61;102012.56;4948898;28;20399;-78
2023/06/12 04:34:49;;;;;;;40.95;37.10;;;28.70;74.50;;;28.91;33.64;102021.69;4950853;28;20042;-77
2023/06/12 04:37:18;;;;;;;17.30;15.50;;;29.00;75.00;;;29.76;33.18;102027.16;4988574;28;20046;-77
2023/06/12 04:39:45;;;;;;;17.67;13.85;;;29.60;74.90;;;30.60;32.14;102030.59;4944946;28;20042;-78
2023/06/12 04:42:16;;;;;;;25.60;23.17;;;29.80;72.60;;;30.58;31.86;102021.75;4962909;28;20406;-78
2023/06/12 04:44:43;;;;;;;47.47;42.42;;;30.40;73.90;;;31.62;31.09;102037.09;4964424;28;20046;-77
2023/06/12 04:47:10;;;;;;;18.48;16.65;;;30.70;72.70;;;31.84;30.83;102037.31;4959039;28;20038;-78
2023/06/12 04:49:43;;;;;;;48.03;43.78;;;31.00;70.70;;;32.13;30.58;102043.94;4974676;28;20043;-77
2023/06/12 04:52:09;;;;;;;15.52;14.02;;;31.40;71.60;;;32.87;29.37;102052.28;4949022;28;20049;-77
2023/06/12 04:54:35;;;;;;;16.85;15.15;;;31.80;71.50;;;33.65;29.04;102061.81;4939201;28;20671;-77
2023/06/12 04:57:12;;;;;;;17.52;14.57;;;32.30;70.50;;;34.07;28.56;102064.75;4989050;28;20418;-77
2023/06/12 04:59:39;;;;;;;17.48;15.75;;;32.30;67.40;;;33.24;28.91;102053.25;4956642;28;20062;-77
2023/06/12 05:02:15;;;;;;;16.55;15.23;;;32.50;69.60;;;34.23;28.38;102071.88;4963002;28;20159;-78
2023/06/12 05:04:41;;;;;;;18.02;16.48;;;32.70;66.10;;;33.73;28.54;102062.72;4996565;28;20038;-78
2023/06/12 05:07:14;;;;;;;23.15;20.50;;;32.90;68.20;;;34.74;27.57;102068.13;4965550;28;20046;-77
2023/06/12 05:09:49;;;;;;;6.40;4.82;;;33.40;69.30;;;35.98;26.45;102072.72;4983079;28;20034;-78
2023/06/12 05:12:23;;;;;;;10.73;9.80;;;33.90;66.40;;;36.07;26.59;102076.94;4965678;28;20426;-75
2023/06/12 05:14:49;;;;;;;7.25;5.40;;;34.10;66.50;;;36.51;26.23;102089.25;4948249;28;20038;-76
2023/06/12 05:17:15;;;;;;;13.18;10.13;;;34.20;64.70;;;36.20;25.92;102081.63;4945454;28;20078;-75
2023/06/12 05:19:48;;;;;;;15.27;13.82;;;34.10;65.60;;;35.90;26.44;102077.34;4942114;28;20046;-76
2023/06/12 05:22:14;;;;;;;9.02;4.65;;;34.00;66.90;;;36.05;26.41;102079.03;4980694;28;20051;-76
2023/06/12 05:24:40;;;;;;;14.20;13.05;;;34.00;65.70;;;36.19;26.27;102083.53;4956764;28;20253;-76
2023/06/12 05:27:07;;;;;;;29.85;27.40;;;33.50;65.40;;;34.97;27.17;102071.44;4948592;28;20556;-76
2023/06/12 05:29:33;;;;;;;10.75;6.68;;;33.20;67.20;;;34.95;28.00;102073.53;4987265;28;20046;-75
2023/06/12 05:32:06;;;;;;;14.00;8.48;;;33.30;67.40;;;35.55;27.41;102073.81;4934107;28;20033;-76
2023/06/12 05:34:32;;;;;;;11.75;8.75;;;33.00;67.00;;;34.84;28.17;102074.94;4968139;28;20038;-75
2023/06/12 05:36:57;;;;;;;40.85;37.55;;;33.70;68.20;;;36.10;26.72;102074.63;4979922;28;20088;-75
2023/06/12 05:39:23;;;;;;;10.90;6.55;;;33.70;66.80;;;36.17;27.13;102076.56;4925068;28;20400;-75
2023/06/12 05:41:51;;;;;;;30.75;28.00;;;33.50;65.40;;;35.32;27.15;102068.69;4984875;28;20041;-76
2023/06/12 05:44:19;;;;;;;36.47;32.60;;;33.70;66.60;;;34.79;27.83;102052.78;4945979;28;20039;-76
2023/06/12 05:46:48;;;;;;;12.48;7.43;;;33.50;65.70;;;34.84;27.73;102057.63;4966601;28;20034;-76
2023/06/12 05:49:13;;;;;;;37.35;34.28;;;33.80;66.70;;;35.86;26.61;102069.75;4973365;28;20049;-75
2023/06/12 05:51:39;;;;;;;41.75;38.20;;;34.00;63.50;;;35.29;26.72;102059.00;4960688;28;20633;-76
2023/06/12 05:54:05;;;;;;;20.35;18.50;;;34.10;63.40;;;35.61;26.16;102061.22;4960930;28;20043;-76
2023/06/12 05:56:39;;;;;;;26.33;23.73;;;34.10;63.40;;;35.26;26.25;102064.03;4967858;28;20034;-76
2023/06/12 05:59:05;;;;;;;34.33;31.58;;;34.30;65.50;;;35.99;26.18;102064.28;4941613;28;20046;-76
2023/06/12 06:01:31;;;;;;;18.48;9.73;;;34.60;63.50;;;36.06;25.94;102065.13;4971591;28;20035;-76
2023/06/12 06:04:00;;;;;;;52.60;48.33;;;34.60;61.50;;;35.16;26.45;102063.53;4939571;28;20046;-75
2023/06/12 06:06:28;;;;;;;19.23;16.58;;;34.50;61.10;;;34.52;27.13;102051.72;4924690;28;20747;-75
2023/06/12 06:08:54;;;;;;;16.58;12.68;;;33.80;62.80;;;34.23;27.05;102052.72;4978951;28;20040;-76
2023/06/12 06:11:20;;;;;;;11.55;10.27;;;33.90;63.10;;;34.92;26.82;102061.06;4956414;28;20033;-76
2023/06/12 06:13:46;;;;;;;29.25;26.42;;;34.10;62.20;;;34.83;26.88;102059.53;4952953;28;20027;-76
2023/06/12 06:16:11;;;;;;;34.40;31.55;;;34.30;62.10;;;35.20;26.36;102059.34;4947185;28;20448;-75
2023/06/12 06:18:41;;;;;;;26.70;24.30;;;33.70;61.80;;;33.48;27.96;102050.22;4953518;28;20041;-75
2023/06/12 06:21:07;;;;;;;20.50;18.50;;;33.40;64.60;;;33.96;28.01;102048.88;4936848;28;20031;-76
2023/06/12 06:23:34;;;;;;;19.75;16.48;;;33.90;63.80;;;34.95;27.07;102051.63;4970660;28;20043;-76
2023/06/12 06:25:59;;;;;;;9.23;5.88;;;34.00;63.20;;;35.03;27.03;102054.19;4974536;28;20069;-76
2023/06/12 06:28:25;;;;;;;9.23;6.25;;;34.30;63.80;;;35.48;26.75;102064.75;4940710;28;20037;-76
2023/06/12 06:30:51;;;;;;;19.75;18.08;;;34.40;62.00;;;34.76;26.94;102060.56;4943769;28;20125;-75
2023/06/12 06:33:17;;;;;;;18.63;16.85;;;34.70;63.50;;;35.76;26.49;102074.78;4942809;28;20051;-75
2023/06/12 06:35:48;;;;;;;17.98;16.20;;;34.90;63.50;;;35.73;26.58;102057.69;4922664;28;20050;-76
2023/06/12 06:38:19;;;;;;;25.15;22.60;;;35.50;62.60;;;36.14;25.92;102075.94;4959027;28;20043;-75
2023/06/12 06:40:52;;;;;;;35.20;32.10;;;35.10;61.20;;;34.67;27.74;102059.88;4947594;28;20049;-76
2023/06/12 06:43:19;;;;;;;11.80;5.35;;;34.80;62.80;;;35.02;27.42;102054.41;4954664;28;20238;-76
2023/06/12 06:45:45;;;;;;;14.95;12.45;;;35.20;62.80;;;35.75;26.81;102060.25;4955613;28;20061;-76
2023/06/12 06:48:14;;;;;;;10.70;9.70;;;35.50;62.90;;;35.98;26.84;102070.81;4930590;28;20027;-75
2023/06/12 06:50:41;;;;;;;13.02;6.45;;;35.40;63.00;;;35.96;26.78;102075.66;4975096;28;20121;-76
2023/06/12 06:53:07;;;;;;;13.13;11.80;;;34.90;62.30;;;34.80;27.56;102054.47;4966716;28;20110;-76
2023/06/12 06:55:33;;;;;;;11.25;7.43;;;35.00;62.80;;;35.05;27.68;102062.19;4953414;28;20102;-76
2023/06/12 06:57:59;;;;;;;11.18;6.15;;;35.40;62.80;;;35.62;26.94;102062.91;4961377;28;20042;-76
2023/06/12 07:00:26;;;;;;;12.27;10.93;;;35.80;62.80;;;36.27;26.58;102075.09;4972216;28;20094;-76
2023/06/12 07:02:53;;;;;;;40.88;37.53;;;36.00;61.40;;;35.83;26.84;102067.41;4950279;28;20152;-75
2023/06/12 07:05:21;;;;;;;38.40;34.95;;;35.40;62.20;;;34.83;27.42;102059.53;4936626;28;20045;-76
2023/06/12 07:07:49;;;;;;;21.13;16.40;;;35.30;62.40;;;34.95;27.79;102045.28;4937957;28;20030;-75
2023/06/12 07:10:16;;;;;;;27.00;24.38;;;35.50;61.70;;;35.46;27.24;102055.88;4968147;28;20065;-76
2023/06/12 07:12:42;;;;;;;28.17;25.27;;;35.30;60.80;;;35.16;27.14;102052.59;4944447;28;20038;-76
2023/06/12 07:15:09;;;;;;;33.65;30.58;;;35.10;61.20;;;34.99;27.34;102047.44;4973468;28;20094;-76
2023/06/12 07:17:40;;;;;;;41.90;38.20;;;34.10;61.70;;;33.20;29.18;102041.88;4929177;28;20050;-76
2023/06/12 07:20:08;;;;;;;11.15;9.82;;;33.80;63.40;;;33.49;28.88;102029.22;4946259;28;20465;-76
2023/06/12 07:22:35;;;;;;;10.07;7.78;;;33.80;63.20;;;33.85;28.43;102028.41;4972867;28;20050;-76
2023/06/12 07:25:03;;;;;;;13.35;9.00;;;34.30;61.10;;;34.55;26.93;102042.28;4944245;28;20053;-76
2023/06/12 07:27:29;;;;;;;22.00;19.75;;;34.80;61.00;;;35.16;26.41;102053.44;4963509;28;20046;-76
2023/06/12 07:29:55;;;;;;;26.33;23.85;;;35.00;60.70;;;35.25;26.29;102056.84;4976610;28;20121;-76
2023/06/12 07:32:21;;;;;;;14.05;12.75;;;35.10;60.40;;;35.43;26.30;102065.38;4908880;28;20074;-77
2023/06/12 07:34:47;;;;;;;26.70;24.15;;;35.40;60.80;;;35.73;26.24;102063.19;4978116;28;20115;-76
2023/06/12 07:37:13;;;;;;;31.20;28.13;;;35.40;58.70;;;34.94;26.42;102058.13;4942130;28;20038;-76
2023/06/12 07:39:39;;;;;;;35.45;32.17;;;34.70;58.10;;;33.98;26.92;102057.75;4929317;28;20031;-75
2023/06/12 07:42:06;;;;;;;23.83;21.70;;;34.70;59.50;;;34.52;26.56;102058.03;4962850;28;20495;-76
2023/06/12 07:44:35;;;;;;;10.18;9.25;;;34.40;59.20;;;34.15;26.64;102047.41;4961239;28;21601;-76
2023/06/12 07:47:00;;;;;;;11.43;8.93;;;34.00;60.90;;;33.68;27.94;102033.25;4933777;28;20033;-75
2023/06/12 07:49:26;;;;;;;10.02;5.55;;;34.00;61.10;;;33.91;27.66;102044.84;4926543;28;22956;-76
2023/06/12 07:51:52;;;;;;;12.23;10.70;;;34.40;62.10;;;35.02;26.82;102046.19;4915163;28;20043;-76
2023/06/12 07:54:18;;;;;;;16.75;10.75;;;34.70;60.00;;;34.78;26.63;102047.53;4977925;28;20216;-76
2023/06/12 07:56:45;;;;;;;9.52;7.07;;;34.60;60.40;;;34.60;27.13;102047.97;4962549;28;20114;-76
2023/06/12 07:59:12;;;;;;;11.65;7.50;;;34.80;61.40;;;35.19;26.70;102052.22;4925546;28;20519;-76
2023/06/12 08:01:39;;;;;;;12.77;10.95;;;35.00;60.50;;;35.41;26.14;102052.94;4954285;28;20509;-76
2023/06/12 08:04:11;;;;;;;37.85;34.63;;;34.50;58.80;;;33.73;26.94;102040.88;4922607;28;20480;-76
2023/06/12 08:06:41;;;;;;;20.05;15.98;;;34.20;60.40;;;34.18;27.17;102033.34;4948320;28;20535;-75
2023/06/12 08:09:09;;;;;;;7.35;5.53;;;33.60;59.80;;;33.33;27.43;102022.13;4938461;28;20058;-76
2023/06/12 08:11:35;;;;;;;15.60;10.50;;;33.50;60.20;;;33.68;26.78;102033.25;4931457;28;20704;-76
2023/06/12 08:14:02;;;;;;;15.20;11.60;;;33.20;60.40;;;33.10;27.79;102024.97;4943236;28;20117;-76
2023/06/12 08:16:27;;;;;;;15.65;14.10;;;33.00;62.40;;;32.81;27.71;102009.41;4938187;28;20500;-76
2023/06/12 08:19:01;;;;;;;8.80;4.10;;;32.80;58.80;;;32.75;27.08;102004.72;4953865;28;20096;-76
2023/06/12 08:21:26;;;;;;;15.60;14.15;;;33.00;61.40;;;33.22;27.57;102008.94;4930406;28;20446;-76
2023/06/12 08:23:52;;;;;;;12.38;11.25;;;32.50;56.20;;;31.71;26.66;101998.91;4955489;28;20045;-76
2023/06/12 08:26:18;;;;;;;7.78;4.47;;;32.20;57.70;;;31.81;26.84;102004.97;4965253;28;20018;-77
2023/06/12 08:28:50;;;;;;;10.43;5.43;;;32.10;59.70;;;31.66;28.14;102000.34;4944314;28;20029;-76
2023/06/12 08:31:16;;;;;;;8.70;7.82;;;31.80;61.00;;;31.22;28.83;101980.97;4953840;28;20100;-76
2023/06/12 08:33:42;;;;;;;14.40;12.93;;;31.60;59.10;;;30.74;28.44;101974.69;4929703;28;20046;-76
2023/06/12 08:36:08;;;;;;;11.63;6.45;;;31.10;59.50;;;30.31;29.55;101960.50;4939982;28;20023;-76
2023/06/12 08:38:34;;;;;;;10.73;9.80;;;30.50;59.80;;;29.59;30.05;101948.41;4938989;28;20042;-76
2023/06/12 08:41:02;;;;;;;14.13;4.57;;;30.50;61.60;;;29.79;29.95;101948.09;4923435;28;20256;-76
2023/06/12 08:43:32;;;;;;;7.32;5.40;;;30.20;59.50;;;29.39;28.94;101938.84;4928162;28;20483;-76
2023/06/12 08:46:07;;;;;;;12.50;10.57;;;29.70;58.70;;;28.61;28.96;101934.44;4962876;28;20140;-76
2023/06/12 08:48:33;;;;;;;8.30;6.85;;;29.50;57.70;;;28.37;28.85;101944.09;4909664;28;20037;-77
2023/06/12 08:51:01;;;;;;;6.45;3.15;;;28.60;59.10;;;27.42;30.02;101921.25;4932983;28;20479;-77
2023/06/12 08:53:27;;;;;;;13.23;9.45;;;28.50;59.70;;;27.50;30.21;101915.94;4952435;28;20607;-77
2023/06/12 08:55:55;;;;;;;13.18;9.32;;;28.40;60.40;;;27.50;30.02;101907.84;4935542;28;20066;-76
2023/06/12 08:58:29;;;;;;;13.88;6.43;;;28.20;60.20;;;27.39;30.19;101908.06;4930851;28;20100;-76
2023/06/12 09:00:57;;;;;;;11.13;6.38;;;28.30;61.10;;;27.77;29.98;101914.16;4948615;28;20038;-77
2023/06/12 09:03:23;;;;;;;6.72;4.13;;;28.40;56.70;;;27.67;27.99;101924.19;4945189;28;20073;-78
2023/06/12 09:05:52;;;;;;;22.95;12.30;;;28.40;57.60;;;27.45;28.27;101920.09;4959541;28;20057;-77
2023/06/12 09:08:21;;;;;;;11.45;6.20;;;28.10;57.80;;;27.18;28.99;101922.66;4951122;28;20418;-78
2023/06/12 09:10:48;;;;;;;9.65;5.47;;;27.90;58.60;;;26.91;29.06;101919.97;4939097;28;20523;-77
2023/06/12 09:13:14;;;;;;;6.25;4.38;;;28.00;60.50;;;27.41;29.43;101914.16;4946445;28;20085;-77
2023/06/12 09:15:52;;;;;;;9.00;7.13;;;28.00;59.40;;;27.14;28.95;101910.44;4921304;28;20109;-78
2023/06/12 09:18:24;;;;;;;6.60;6.00;;;27.60;56.10;;;26.31;27.46;101917.63;4986021;28;20395;-78
2023/06/12 09:20:53;;;;;;;13.93;7.68;;;27.20;55.40;;;26.25;27.65;101916.34;4952542;28;20035;-78
2023/06/12 09:23:19;;;;;;;5.68;5.15;;;27.30;56.30;;;26.83;27.13;101926.13;4924882;28;20034;-77
2023/06/12 09:25:45;;;;;;;14.55;8.18;;;27.50;57.10;;;27.07;27.16;101932.84;4958609;28;20042;-76
2023/06/12 09:28:11;;;;;;;11.38;7.50;;;27.70;56.50;;;27.32;26.78;101934.00;4944272;28;20034;-77
2023/06/12 09:30:50;;;;;;;7.07;5.55;;;27.50;55.80;;;26.62;27.24;101937.16;4946953;28;20068;-78
2023/06/12 09:33:17;;;;;;;5.18;3.47;;;27.70;57.60;;;27.32;27.48;101934.88;4918371;28;20117;-77
2023/06/12 09:35:53;;;;;;;17.63;6.18;;;27.80;57.70;;;27.29;27.12;101932.44;4954315;28;20045;-78
2023/06/12 09:38:36;;;;;;;7.57;6.97;;;27.80;54.30;;;27.20;26.14;101944.16;4939339;28;20038;-78
2023/06/12 09:41:10;;;;;;;8.73;6.13;;;27.80;56.10;;;27.20;26.68;101947.69;4967738;28;20445;-78
2023/06/12 09:43:37;;;;;;;18.60;16.67;;;27.90;54.50;;;27.12;26.31;101955.72;4949254;28;20093;-76
2023/06/12 09:46:09;;;;;;;16.65;15.15;;;27.90;55.50;;;27.23;26.02;101948.44;4966589;28;20034;-77
2023/06/12 09:48:41;;;;;;;6.50;5.57;;;27.60;53.20;;;26.91;26.06;101934.34;4964050;28;20555;-78
2023/06/12 09:51:09;;;;;;;11.20;10.07;;;27.60;55.10;;;26.91;26.67;101952.41;4961948;28;20046;-77
2023/06/12 09:53:41;;;;;;;22.08;20.40;;;27.70;54.90;;;26.91;26.71;101952.41;4950789;28;20697;-78
2023/06/12 09:56:11;;;;;;;10.73;4.40;;;27.40;55.40;;;26.72;26.88;101939.84;4968913;28;20153;-77
2023/06/12 09:58:48;;;;;;;13.95;9.65;;;27.30;57.00;;;26.58;27.61;101933.88;4920717;28;20034;-75
2023/06/12 10:01:24;;;;;;;8.25;6.18;;;27.30;56.60;;;26.38;26.59;101951.13;4941917;28;20376;-78
2023/06/12 10:03:56;;;;;;;6.75;3.58;;;27.10;54.20;;;26.25;26.09;101931.69;4946912;28;20126;-79
2023/06/12 10:06:27;;;;;;;11.85;9.02;;;27.20;56.20;;;26.76;26.79;101925.00;4948899;28;20043;-78
2023/06/12 10:08:54;;;;;;;10.45;9.65;;;27.40;58.00;;;27.01;27.61;101932.44;4956148;28;20103;-78
2023/06/12 10:11:22;;;;;;;5.97;4.78;;;27.10;55.50;;;26.36;26.96;101943.16;4953408;28;20147;-79
2023/06/12 10:13:47;;;;;;;10.68;8.43;;;27.00;55.80;;;26.07;27.01;101940.53;4935395;28;20052;-78